Time;durP1;ratioP1;P1;durP2;ratioP2;P2;SDS_P1;SDS_P2;PMS_P1;PMS_P2;Temp;Humidity;BMP_temperature;BMP_pressure;BME280_temperature;BME280_humidity;BME280_pressure;Samples;Min_cycle;Max_cycle;Signal;HPM_P1;HPM_P2
2022/01/26 00:05:49;;;;;;;25.40;11.02;;;3.50;70.70;;;;;;2387976;53;20928;-68
2022/01/26 00:08:22;;;;;;;19.50;9.90;;;3.50;70.70;;;;;;2365475;53;22075;-68
2022/01/26 00:10:48;;;;;;;27.45;11.35;;;3.50;70.70;;;;;;2390327;54;20899;-66
2022/01/26 00:13:14;;;;;;;19.73;9.48;;;3.50;70.80;;;;;;2372611;53;21009;-68
2022/01/26 00:15:42;;;;;;;24.65;11.10;;;3.50;70.90;;;;;;2371574;54;21024;-66
2022/01/26 00:18:08;;;;;;;19.42;10.30;;;3.50;71.00;;;;;;2347771;53;20911;-66
2022/01/26 00:20:48;;;;;;;26.77;12.02;;;3.50;71.00;;;;;;2390572;54;20927;-67
2022/01/26 00:27:29;;;;;;;20.08;9.52;;;3.50;71.00;;;;;;2390241;54;20955;-68
2022/01/26 00:31:12;;;;;;;22.05;9.68;;;3.50;71.00;;;;;;2390974;54;20996;-68
2022/01/26 00:39:07;;;;;;;19.77;10.27;;;3.50;71.00;;;;;;2378534;53;21011;-69
2022/01/26 00:41:39;;;;;;;22.92;10.93;;;3.50;71.00;;;;;;2390315;54;21368;-66
2022/01/26 00:44:06;;;;;;;21.90;10.25;;;3.50;71.00;;;;;;2616126;52;20941;-66
2022/01/26 00:46:34;;;;;;;20.73;9.67;;;3.50;71.10;;;;;;2385263;54;20955;-68
2022/01/26 00:49:00;;;;;;;25.48;10.85;;;3.50;71.10;;;;;;2390591;54;21074;-66
2022/01/26 00:51:27;;;;;;;22.40;11.07;;;3.50;71.20;;;;;;2647237;52;21362;-68
2022/01/26 00:54:01;;;;;;;23.20;10.85;;;3.50;71.30;;;;;;2340737;53;20944;-67
2022/01/26 00:56:28;;;;;;;24.42;10.73;;;3.50;71.20;;;;;;2330848;53;21874;-68
2022/01/26 00:58:55;;;;;;;22.30;9.63;;;3.50;71.20;;;;;;2336617;53;20973;-68
2022/01/26 01:01:24;;;;;;;24.50;11.15;;;3.50;71.20;;;;;;2348781;53;20938;-68
2022/01/26 01:03:51;;;;;;;24.40;11.12;;;3.50;71.20;;;;;;2364455;53;20943;-66
2022/01/26 01:06:29;;;;;;;23.15;11.52;;;3.50;71.30;;;;;;2362773;53;20942;-67
2022/01/26 01:08:57;;;;;;;23.62;10.65;;;3.50;71.30;;;;;;2335597;54;21506;-66
2022/01/26 01:11:24;;;;;;;22.45;10.75;;;3.60;71.30;;;;;;2362280;53;21546;-66
2022/01/26 01:13:50;;;;;;;24.87;11.38;;;3.60;71.40;;;;;;2362369;53;21344;-67
2022/01/26 01:16:21;;;;;;;19.65;9.65;;;3.60;71.40;;;;;;2362633;53;20970;-68
2022/01/26 01:19:07;;;;;;;20.20;10.65;;;3.60;71.40;;;;;;2362918;53;20942;-68
2022/01/26 01:27:24;;;;;;;23.77;10.65;;;3.60;71.30;;;;;;2385863;54;20978;-66
2022/01/26 01:33:20;;;;;;;21.52;10.02;;;3.60;71.10;;;;;;2385763;54;21768;-67
2022/01/26 01:35:48;;;;;;;21.75;10.40;;;3.60;71.10;;;;;;2451484;52;20971;-66
2022/01/26 01:38:17;;;;;;;18.27;9.27;;;3.60;71.20;;;;;;2385422;54;20936;-68
2022/01/26 01:40:49;;;;;;;21.70;9.80;;;3.60;71.30;;;;;;2386268;54;20911;-67
2022/01/26 01:43:16;;;;;;;21.15;10.05;;;3.60;71.30;;;;;;2385999;54;20934;-68
2022/01/26 01:45:47;;;;;;;19.17;8.88;;;3.60;71.30;;;;;;2385898;54;20935;-68
2022/01/26 01:48:16;;;;;;;22.40;10.95;;;3.60;71.40;;;;;;2384195;54;21059;-68
2022/01/26 01:50:43;;;;;;;24.27;10.32;;;3.60;71.40;;;;;;2386235;54;20923;-66
2022/01/26 01:53:09;;;;;;;19.73;9.77;;;3.60;71.40;;;;;;2386024;54;21777;-68
2022/01/26 01:55:38;;;;;;;26.60;11.82;;;3.60;71.40;;;;;;2428968;52;21001;-66
2022/01/26 01:58:04;;;;;;;24.02;10.98;;;3.70;71.60;;;;;;2572417;52;21798;-66
2022/01/26 02:00:31;;;;;;;22.85;10.15;;;3.70;71.60;;;;;;2383878;54;20996;-68
2022/01/26 02:03:00;;;;;;;20.50;9.77;;;3.70;71.50;;;;;;2386050;54;20971;-67
2022/01/26 02:05:26;;;;;;;23.10;10.45;;;3.70;71.50;;;;;;2385678;54;20947;-66
2022/01/26 02:07:52;;;;;;;19.10;8.75;;;3.70;71.40;;;;;;2383907;54;21015;-68
2022/01/26 02:10:20;;;;;;;16.80;8.57;;;3.70;71.40;;;;;;2364881;54;20959;-68
2022/01/26 02:12:50;;;;;;;25.75;10.20;;;3.70;71.40;;;;;;2383194;54;21106;-67
2022/01/26 02:15:23;;;;;;;19.95;9.20;;;3.70;71.50;;;;;;2385329;54;20943;-67
2022/01/26 02:55:35;;;;;;;21.37;9.40;;;3.70;71.40;;;;;;2380323;54;20960;-66
2022/01/26 02:58:22;;;;;;;18.67;8.83;;;3.70;71.30;;;;;;2595843;53;21780;-65
2022/01/26 03:05:58;;;;;;;19.70;9.95;;;3.70;71.30;;;;;;2395871;53;21927;-67
2022/01/26 03:08:34;;;;;;;16.35;8.35;;;3.70;71.10;;;;;;2394052;53;20976;-68
2022/01/26 03:11:08;;;;;;;19.00;9.10;;;3.70;71.10;;;;;;2395817;53;20999;-68
2022/01/26 03:13:36;;;;;;;23.92;9.55;;;3.70;70.90;;;;;;2393917;53;20923;-68
2022/01/26 03:16:11;;;;;;;23.05;9.63;;;3.70;70.80;;;;;;2399648;53;20956;-68
2022/01/26 03:21:29;;;;;;;21.98;9.25;;;3.70;70.50;;;;;;2395258;53;20955;-67
2022/01/26 03:30:07;;;;;;;17.08;7.50;;;3.60;70.70;;;;;;2385683;53;21012;-67
2022/01/26 03:35:41;;;;;;;24.87;9.65;;;3.60;71.00;;;;;;2389252;53;21025;-66
2022/01/26 03:38:09;;;;;;;24.80;9.70;;;3.50;70.80;;;;;;2383426;53;20987;-68
2022/01/26 03:40:38;;;;;;;18.80;8.38;;;3.50;70.80;;;;;;2395534;53;20978;-68
2022/01/26 03:43:05;;;;;;;20.60;8.98;;;3.50;70.80;;;;;;2653681;52;21405;-66
2022/01/26 03:45:31;;;;;;;18.27;8.48;;;3.50;70.90;;;;;;2371297;54;20995;-69
2022/01/26 03:47:58;;;;;;;19.17;8.63;;;3.50;71.00;;;;;;2395450;53;21373;-68
2022/01/26 03:50:25;;;;;;;19.98;8.80;;;3.50;71.10;;;;;;2394954;53;20915;-66
2022/01/26 03:52:51;;;;;;;16.60;8.10;;;3.50;71.20;;;;;;2375192;53;20906;-68
2022/01/26 03:55:17;;;;;;;24.85;9.65;;;3.50;71.20;;;;;;2565955;52;21294;-67
2022/01/26 03:57:44;;;;;;;22.80;9.90;;;3.50;71.10;;;;;;2479580;52;20971;-67
2022/01/26 04:00:10;;;;;;;25.15;10.55;;;3.50;71.00;;;;;;2377472;54;21008;-66
2022/01/26 04:02:37;;;;;;;18.25;9.25;;;3.50;71.00;;;;;;2367203;54;20955;-66
2022/01/26 04:05:07;;;;;;;18.98;8.23;;;3.50;70.90;;;;;;2448675;53;20952;-68
2022/01/26 04:07:33;;;;;;;20.02;9.05;;;3.50;71.00;;;;;;2395463;53;21475;-65
2022/01/26 04:10:09;;;;;;;20.90;9.57;;;3.50;71.00;;;;;;2395743;53;20992;-68
2022/01/26 04:12:37;;;;;;;17.85;8.65;;;3.50;70.90;;;;;;2365992;54;21733;-68
2022/01/26 04:15:14;;;;;;;23.25;10.05;;;3.50;70.90;;;;;;2386759;53;20972;-68
2022/01/26 04:17:40;;;;;;;20.45;9.20;;;3.50;71.00;;;;;;2383608;53;21330;-66
2022/01/26 04:20:07;;;;;;;20.05;8.70;;;3.50;71.00;;;;;;2653640;52;21002;-68
2022/01/26 04:22:48;;;;;;;19.77;8.40;;;3.50;71.00;;;;;;2371326;53;21651;-67
2022/01/26 04:25:19;;;;;;;18.50;8.32;;;3.50;71.00;;;;;;2395768;53;21002;-68
2022/01/26 04:27:56;;;;;;;21.75;9.10;;;3.50;70.90;;;;;;2394838;53;20939;-69
2022/01/26 04:30:22;;;;;;;22.02;9.57;;;3.50;70.80;;;;;;2387068;53;20953;-68
2022/01/26 04:32:48;;;;;;;20.05;8.68;;;3.50;70.80;;;;;;2370886;53;20960;-68
2022/01/26 04:35:15;;;;;;;20.55;10.18;;;3.50;70.80;;;;;;2395492;53;20991;-69
2022/01/26 04:38:08;;;;;;;26.42;10.88;;;3.50;70.80;;;;;;2394333;53;20915;-67
2022/01/26 04:40:41;;;;;;;21.98;9.90;;;3.50;70.70;;;;;;2366857;54;20997;-68
2022/01/26 04:43:15;;;;;;;23.25;10.48;;;3.40;70.50;;;;;;2340253;53;21573;-66
2022/01/26 04:45:41;;;;;;;19.02;8.75;;;3.40;70.50;;;;;;2435163;53;20922;-68
2022/01/26 04:48:10;;;;;;;18.83;8.23;;;3.40;70.50;;;;;;2425443;53;21006;-65
2022/01/26 04:50:36;;;;;;;19.73;8.70;;;3.40;70.60;;;;;;2347839;53;20978;-67
2022/01/26 04:53:02;;;;;;;19.48;8.88;;;3.40;70.60;;;;;;2523168;52;21027;-68
2022/01/26 04:55:28;;;;;;;19.00;9.05;;;3.40;70.70;;;;;;2361876;54;20942;-68
2022/01/26 04:57:55;;;;;;;17.08;7.50;;;3.40;70.70;;;;;;2362294;54;20958;-67
2022/01/26 05:00:21;;;;;;;22.98;9.35;;;3.30;70.60;;;;;;2362212;54;20946;-66
2022/01/26 05:02:47;;;;;;;19.35;8.63;;;3.40;70.70;;;;;;2366861;54;20966;-66
2022/01/26 05:05:14;;;;;;;19.73;9.23;;;3.30;70.60;;;;;;2350461;55;20978;-68
2022/01/26 05:07:41;;;;;;;22.77;10.05;;;3.30;70.60;;;;;;2370987;53;20942;-66
2022/01/26 05:10:07;;;;;;;21.58;9.52;;;3.30;70.60;;;;;;2457386;52;20948;-68
2022/01/26 05:16:05;;;;;;;21.23;9.05;;;3.30;70.50;;;;;;2641576;52;21681;-67
2022/01/26 05:18:32;;;;;;;24.52;9.65;;;3.30;70.50;;;;;;2383877;54;21420;-69
2022/01/26 05:20:59;;;;;;;20.42;9.35;;;3.30;70.50;;;;;;2633110;52;20916;-68
2022/01/26 05:23:25;;;;;;;20.08;9.40;;;3.30;70.50;;;;;;2585829;52;20932;-67
2022/01/26 05:25:51;;;;;;;17.48;7.55;;;3.30;70.60;;;;;;2385727;54;20969;-68
2022/01/26 05:28:18;;;;;;;18.42;7.95;;;3.30;70.60;;;;;;2385399;54;21659;-66
2022/01/26 05:30:45;;;;;;;22.10;9.30;;;3.20;70.60;;;;;;2385710;54;21126;-68
2022/01/26 05:33:11;;;;;;;16.75;8.57;;;3.20;70.70;;;;;;2390616;52;21861;-68
2022/01/26 05:35:37;;;;;;;20.33;8.93;;;3.20;70.70;;;;;;2385769;54;21408;-69
2022/01/26 05:38:06;;;;;;;22.65;9.27;;;3.20;70.80;;;;;;2641406;52;20900;-68
2022/01/26 05:40:32;;;;;;;19.90;8.95;;;3.20;70.90;;;;;;2385327;54;20987;-68
2022/01/26 05:43:00;;;;;;;27.23;11.68;;;3.20;71.00;;;;;;2384740;54;20943;-67
2022/01/26 05:45:34;;;;;;;23.25;10.73;;;3.30;71.20;;;;;;2628439;52;20947;-68
2022/01/26 05:48:03;;;;;;;24.05;9.55;;;3.30;71.20;;;;;;2386037;54;20935;-68
2022/01/26 05:50:31;;;;;;;30.37;12.40;;;3.30;71.20;;;;;;2385871;54;21024;-67
2022/01/26 05:52:57;;;;;;;26.52;11.35;;;3.30;71.20;;;;;;2372421;54;20972;-66
2022/01/26 05:55:23;;;;;;;24.70;10.50;;;3.30;71.90;;;;;;2374318;53;20947;-67
2022/01/26 05:57:50;;;;;;;21.02;9.38;;;3.30;71.20;;;;;;2385607;54;21038;-67
2022/01/26 06:00:16;;;;;;;23.83;10.00;;;3.30;71.20;;;;;;2385966;54;20956;-67
2022/01/26 06:02:43;;;;;;;24.83;11.27;;;3.30;71.20;;;;;;2384436;54;20931;-69
2022/01/26 06:05:09;;;;;;;20.85;9.73;;;3.30;71.20;;;;;;2385862;54;20903;-68
2022/01/26 06:07:35;;;;;;;24.55;9.98;;;3.30;71.30;;;;;;2385382;54;20959;-67
2022/01/26 06:10:03;;;;;;;25.73;10.90;;;3.40;71.40;;;;;;2367966;52;20925;-67
2022/01/26 06:12:33;;;;;;;24.35;10.63;;;3.40;71.40;;;;;;2524884;52;21480;-68
2022/01/26 06:15:03;;;;;;;23.52;10.10;;;3.40;71.40;;;;;;2376006;54;21488;-68
2022/01/26 06:17:29;;;;;;;26.00;10.98;;;3.40;71.30;;;;;;2385607;54;21808;-68
2022/01/26 06:19:55;;;;;;;23.17;9.50;;;3.40;71.20;;;;;;2385376;54;20935;-67
2022/01/26 06:22:21;;;;;;;22.08;9.82;;;3.40;71.30;;;;;;2361314;53;21032;-67
2022/01/26 06:24:49;;;;;;;26.70;10.43;;;3.40;71.30;;;;;;2385571;54;20920;-68
2022/01/26 06:27:16;;;;;;;22.02;9.38;;;3.40;71.40;;;;;;2390041;52;21663;-68
2022/01/26 06:29:42;;;;;;;22.20;10.65;;;3.40;71.40;;;;;;2385537;54;20960;-66
2022/01/26 06:32:09;;;;;;;22.60;9.75;;;3.40;71.40;;;;;;2386474;54;20936;-68
2022/01/26 06:34:39;;;;;;;24.73;10.20;;;3.40;71.40;;;;;;2457237;52;20963;-68
2022/01/26 06:37:06;;;;;;;21.92;9.70;;;3.40;71.40;;;;;;2641373;52;20967;-67
2022/01/26 06:39:32;;;;;;;23.67;10.52;;;3.40;71.40;;;;;;2385939;54;21007;-67
2022/01/26 06:41:59;;;;;;;23.80;10.27;;;3.40;71.40;;;;;;2415376;52;21429;-69
2022/01/26 06:44:33;;;;;;;22.33;9.45;;;3.50;71.40;;;;;;2385834;54;20916;-66
2022/01/26 06:48:26;;;;;;;24.50;10.40;;;3.50;71.40;;;;;;2385898;54;20932;-67
2022/01/26 06:50:53;;;;;;;20.95;9.00;;;3.40;71.30;;;;;;2347804;54;20923;-67
2022/01/26 06:53:19;;;;;;;25.45;10.15;;;3.50;71.20;;;;;;2391204;53;20952;-67
2022/01/26 06:55:45;;;;;;;27.05;11.40;;;3.50;71.20;;;;;;2395325;53;20939;-67
2022/01/26 06:58:11;;;;;;;23.80;9.95;;;3.40;71.20;;;;;;2408291;52;20939;-66
2022/01/26 07:00:38;;;;;;;24.87;9.57;;;3.50;71.40;;;;;;2368130;53;20986;-68
2022/01/26 07:03:04;;;;;;;27.30;11.07;;;3.50;71.40;;;;;;2394960;53;21054;-67
2022/01/26 07:05:31;;;;;;;25.17;9.75;;;3.50;71.40;;;;;;2395424;53;21895;-69
2022/01/26 07:07:58;;;;;;;23.50;9.60;;;3.50;71.30;;;;;;2395519;53;20944;-68
2022/01/26 07:10:24;;;;;;;28.08;11.25;;;3.50;71.30;;;;;;2392152;53;20993;-67
2022/01/26 07:12:50;;;;;;;23.98;9.43;;;3.50;71.30;;;;;;2481156;53;20911;-68
2022/01/26 07:21:22;;;;;;;24.77;10.20;;;3.50;71.40;;;;;;2395602;53;20939;-67
2022/01/26 07:23:48;;;;;;;22.85;9.13;;;3.50;71.40;;;;;;2439936;52;20928;-66
2022/01/26 07:26:15;;;;;;;26.95;10.88;;;3.50;71.40;;;;;;2395605;53;20948;-68
2022/01/26 07:28:41;;;;;;;23.98;9.50;;;3.50;71.50;;;;;;2395360;53;20911;-68
2022/01/26 07:31:08;;;;;;;28.75;10.30;;;3.50;71.50;;;;;;2395658;53;22135;-66
2022/01/26 07:33:34;;;;;;;28.95;11.38;;;3.50;71.50;;;;;;2395163;53;21507;-68
2022/01/26 07:36:00;;;;;;;24.80;9.77;;;3.50;71.60;;;;;;2371223;53;21004;-68
2022/01/26 07:38:27;;;;;;;26.33;10.88;;;3.50;71.60;;;;;;2392851;53;21762;-66
2022/01/26 07:40:54;;;;;;;27.70;10.95;;;3.60;71.70;;;;;;2374520;53;20974;-65
2022/01/26 07:43:21;;;;;;;27.37;10.98;;;3.60;71.70;;;;;;2395489;53;20932;-69
2022/01/26 07:45:48;;;;;;;23.10;9.60;;;3.60;71.70;;;;;;2399196;52;20987;-68
2022/01/26 07:48:14;;;;;;;24.02;10.13;;;3.60;71.70;;;;;;2418758;52;21389;-67
2022/01/26 07:50:40;;;;;;;24.27;9.90;;;3.60;71.70;;;;;;2394303;53;21356;-66
2022/01/26 07:53:13;;;;;;;23.45;9.77;;;3.60;71.70;;;;;;2376446;53;20948;-67
2022/01/26 07:55:39;;;;;;;24.00;9.45;;;3.70;71.80;;;;;;2390589;53;21857;-66
2022/01/26 07:58:08;;;;;;;25.27;9.98;;;3.70;71.70;;;;;;2485276;52;21835;-65
2022/01/26 08:00:34;;;;;;;23.10;10.07;;;3.70;71.70;;;;;;2395155;53;20943;-66
2022/01/26 08:03:00;;;;;;;25.77;9.82;;;3.70;71.50;;;;;;2384900;53;21486;-66
2022/01/26 08:05:27;;;;;;;26.77;11.15;;;3.70;71.50;;;;;;2380825;53;20999;-67
2022/01/26 08:07:53;;;;;;;21.73;9.35;;;3.70;71.50;;;;;;2395526;53;20904;-65
2022/01/26 08:10:19;;;;;;;19.33;8.05;;;3.70;71.50;;;;;;2478681;52;21017;-67
2022/01/26 08:12:49;;;;;;;24.58;9.38;;;3.70;71.50;;;;;;2629855;52;20910;-67
2022/01/26 08:15:24;;;;;;;24.92;9.82;;;3.70;71.60;;;;;;2395353;53;20983;-66
2022/01/26 08:17:50;;;;;;;25.02;9.05;;;3.70;71.60;;;;;;2630829;52;21076;-68
2022/01/26 08:20:16;;;;;;;22.45;9.57;;;3.70;71.60;;;;;;2385697;53;21732;-66
2022/01/26 08:22:46;;;;;;;26.98;10.27;;;3.70;71.50;;;;;;2395378;53;20928;-67
2022/01/26 08:25:33;;;;;;;25.88;10.00;;;3.70;72.20;;;;;;2390325;53;20976;-67
2022/01/26 08:28:07;;;;;;;24.75;10.27;;;3.70;71.40;;;;;;2382053;53;20972;-68
2022/01/26 08:30:37;;;;;;;23.85;9.88;;;3.70;71.50;;;;;;2399797;52;21083;-67
2022/01/26 08:33:04;;;;;;;26.33;10.50;;;3.70;71.50;;;;;;2438425;52;21463;-68
2022/01/26 08:35:32;;;;;;;25.62;9.90;;;3.70;71.50;;;;;;2387216;53;20940;-66
2022/01/26 08:37:58;;;;;;;24.80;9.68;;;3.80;71.60;;;;;;2380582;53;20991;-67
2022/01/26 08:40:25;;;;;;;24.70;9.85;;;3.80;71.70;;;;;;2395487;52;21022;-66
2022/01/26 08:42:52;;;;;;;26.20;10.18;;;3.80;71.80;;;;;;2462329;52;20978;-67
2022/01/26 08:45:20;;;;;;;22.60;8.43;;;3.80;71.80;;;;;;2479909;52;21003;-65
2022/01/26 08:47:47;;;;;;;22.58;9.02;;;3.80;71.90;;;;;;2371048;53;20940;-69
2022/01/26 08:50:14;;;;;;;22.00;8.93;;;3.80;71.90;;;;;;2377247;53;20968;-68
2022/01/26 08:52:40;;;;;;;22.30;8.65;;;3.80;71.90;;;;;;2365454;53;21081;-66
2022/01/26 08:55:07;;;;;;;27.75;10.25;;;3.80;72.00;;;;;;2393552;53;20932;-68
2022/01/26 08:57:33;;;;;;;29.63;10.55;;;3.90;72.10;;;;;;2393844;53;20935;-66
2022/01/26 09:00:00;;;;;;;22.92;8.40;;;3.90;72.00;;;;;;2395407;53;20929;-67
2022/01/26 09:02:27;;;;;;;27.92;10.23;;;3.90;71.90;;;;;;2370006;53;20993;-69
2022/01/26 09:04:53;;;;;;;27.52;9.73;;;3.90;72.00;;;;;;2395070;53;20939;-67
2022/01/26 09:07:20;;;;;;;25.30;9.70;;;3.90;72.10;;;;;;2394558;53;21011;-68
2022/01/26 09:09:47;;;;;;;25.23;10.05;;;4.00;72.10;;;;;;2651872;52;21803;-65
2022/01/26 09:12:15;;;;;;;26.67;10.13;;;4.00;72.10;;;;;;2411142;52;20998;-67
2022/01/26 09:14:41;;;;;;;28.05;10.23;;;4.00;72.00;;;;;;2395192;53;20999;-66
2022/01/26 09:17:08;;;;;;;25.73;10.15;;;4.00;71.90;;;;;;2370195;53;20962;-66
2022/01/26 09:19:34;;;;;;;25.35;9.50;;;4.00;71.80;;;;;;2393939;53;21878;-66
2022/01/26 09:22:06;;;;;;;28.92;10.55;;;4.00;71.70;;;;;;2395412;53;20923;-67
2022/01/26 09:24:34;;;;;;;24.45;9.68;;;4.00;71.70;;;;;;2395074;53;20952;-67
2022/01/26 09:27:01;;;;;;;31.12;10.60;;;4.10;71.80;;;;;;2612233;52;21156;-67
2022/01/26 09:29:27;;;;;;;25.05;9.63;;;4.10;71.90;;;;;;2372206;53;21472;-67
2022/01/26 09:31:53;;;;;;;24.45;9.35;;;4.10;71.80;;;;;;2395270;53;20940;-67
2022/01/26 09:34:22;;;;;;;23.90;9.20;;;4.10;71.70;;;;;;2395259;53;21082;-65
2022/01/26 09:36:49;;;;;;;26.58;10.68;;;4.10;71.60;;;;;;2395561;53;20996;-67
2022/01/26 09:39:17;;;;;;;27.75;9.45;;;4.10;71.40;;;;;;2395576;53;20955;-67
2022/01/26 09:41:45;;;;;;;31.62;11.12;;;4.10;71.40;;;;;;2372175;53;1352086;-68
2022/01/26 09:44:13;;;;;;;30.55;10.93;;;4.10;71.50;;;;;;2395414;53;20915;-66
2022/01/26 09:46:41;;;;;;;25.37;9.93;;;4.10;71.60;;;;;;2395119;53;20991;-68
2022/01/26 09:49:18;;;;;;;30.40;11.50;;;4.10;71.80;;;;;;2540137;52;20930;-67
2022/01/26 09:51:47;;;;;;;28.65;10.77;;;4.10;71.80;;;;;;2328992;53;20922;-66
2022/01/26 09:54:19;;;;;;;31.50;11.10;;;4.10;71.80;;;;;;2366977;53;21499;-67
2022/01/26 09:57:00;;;;;;;29.33;11.02;;;4.10;71.80;;;;;;2372215;53;21217;-68
2022/01/26 09:59:26;;;;;;;23.85;10.07;;;4.10;71.80;;;;;;2351968;53;20936;-65
2022/01/26 10:01:52;;;;;;;23.80;10.05;;;4.20;72.00;;;;;;2353629;54;20922;-69
2022/01/26 10:04:35;;;;;;;27.08;11.15;;;4.20;72.10;;;;;;2394485;53;20989;-67
2022/01/26 10:07:25;;;;;;;25.65;10.35;;;4.20;72.00;;;;;;2366629;54;20970;-66
2022/01/26 10:15:34;;;;;;;25.27;9.48;;;4.30;71.90;;;;;;2392571;53;20971;-69
2022/01/26 10:18:14;;;;;;;21.75;8.98;;;4.30;72.00;;;;;;2491117;52;20927;-68
2022/01/26 10:20:50;;;;;;;25.30;8.65;;;4.30;71.90;;;;;;2371309;53;21384;-68
2022/01/26 10:23:24;;;;;;;26.80;10.00;;;4.30;71.90;;;;;;2394975;53;20940;-66
2022/01/26 10:26:13;;;;;;;20.48;8.77;;;4.40;72.00;;;;;;2395208;53;20916;-66
2022/01/26 10:28:59;;;;;;;22.83;8.57;;;4.40;71.80;;;;;;2393054;53;21013;-66
2022/01/26 10:31:39;;;;;;;25.92;10.13;;;4.40;71.80;;;;;;2367796;54;20941;-68
2022/01/26 10:34:14;;;;;;;23.87;9.70;;;4.40;71.90;;;;;;2381805;53;20987;-67
2022/01/26 10:36:50;;;;;;;25.33;9.93;;;4.40;71.90;;;;;;2397561;53;21460;-68
2022/01/26 10:39:22;;;;;;;22.08;9.63;;;4.40;71.90;;;;;;2395870;53;20998;-65
2022/01/26 10:41:51;;;;;;;27.33;10.32;;;4.50;72.00;;;;;;2492302;52;20963;-68
2022/01/26 10:44:18;;;;;;;22.87;9.85;;;4.50;72.00;;;;;;2395130;53;20908;-68
2022/01/26 10:46:45;;;;;;;28.23;11.57;;;4.50;72.00;;;;;;2395392;53;21642;-66
2022/01/26 10:49:30;;;;;;;25.83;10.68;;;4.50;71.90;;;;;;2395028;53;20967;-67
2022/01/26 10:52:01;;;;;;;31.37;13.93;;;4.50;71.80;;;;;;2395648;53;20988;-68
2022/01/26 10:54:37;;;;;;;30.70;12.95;;;4.50;71.80;;;;;;2395022;53;21050;-67
2022/01/26 10:57:10;;;;;;;29.02;13.82;;;4.50;71.70;;;;;;2395936;53;21070;-68
2022/01/26 10:59:37;;;;;;;28.42;12.77;;;4.50;72.00;;;;;;2394898;53;20924;-68
2022/01/26 11:02:04;;;;;;;36.40;15.95;;;4.50;71.10;;;;;;2394993;53;20940;-68
2022/01/26 11:04:34;;;;;;;29.83;13.82;;;4.50;70.90;;;;;;2394523;53;20935;-69
2022/01/26 11:07:03;;;;;;;26.92;11.68;;;4.50;70.80;;;;;;2395433;53;20916;-66
2022/01/26 11:09:31;;;;;;;25.62;11.55;;;4.50;71.00;;;;;;2465277;52;21534;-67
2022/01/26 11:12:05;;;;;;;26.58;10.63;;;4.50;71.20;;;;;;2424436;52;20932;-68
2022/01/26 11:15:23;;;;;;;26.05;10.52;;;4.50;71.30;;;;;;2394764;53;21314;-67
2022/01/26 11:18:08;;;;;;;25.25;11.30;;;4.50;71.50;;;;;;2394429;53;20999;-67
2022/01/26 11:20:50;;;;;;;27.33;11.18;;;4.50;71.50;;;;;;2652571;52;21412;-67
2022/01/26 11:23:33;;;;;;;23.20;10.23;;;4.50;71.50;;;;;;2394263;53;20979;-68
2022/01/26 11:26:02;;;;;;;23.48;10.38;;;4.50;71.40;;;;;;2395535;53;20997;-67
2022/01/26 11:28:28;;;;;;;24.63;10.70;;;4.50;71.60;;;;;;2395249;53;21410;-66
2022/01/26 11:30:59;;;;;;;25.60;11.27;;;4.50;71.50;;;;;;2433608;52;20959;-66
2022/01/26 11:33:27;;;;;;;27.13;11.52;;;4.50;72.20;;;;;;2394933;53;21300;-68
2022/01/26 11:35:55;;;;;;;24.30;10.15;;;4.50;71.60;;;;;;2394944;53;20998;-67
2022/01/26 11:42:18;;;;;;;23.77;9.73;;;4.50;71.50;;;;;;2394765;53;21871;-67
2022/01/26 11:47:30;;;;;;;24.40;10.32;;;4.50;71.40;;;;;;2499864;52;20986;-66
2022/01/26 11:50:19;;;;;;;26.55;11.85;;;4.50;71.50;;;;;;2359028;53;21038;-66
2022/01/26 11:53:05;;;;;;;25.25;10.40;;;4.50;71.40;;;;;;2352939;54;20995;-67
2022/01/26 11:56:08;;;;;;;23.15;10.55;;;4.50;71.40;;;;;;2413982;52;20991;-66
2022/01/26 11:58:42;;;;;;;;;;;4.50;71.00;;;;;;2403412;53;20955;-66
2022/01/26 12:01:31;;;;;;;26.10;10.68;;;4.60;70.70;;;;;;2399751;53;20184;-67
2022/01/26 12:04:07;;;;;;;27.00;10.80;;;4.50;71.00;;;;;;2434337;52;21558;-68
2022/01/26 12:06:35;;;;;;;25.92;10.90;;;4.50;70.90;;;;;;2399624;53;21756;-67
2022/01/26 12:09:03;;;;;;;41.00;15.38;;;4.50;70.90;;;;;;2396481;53;20915;-66
2022/01/26 12:11:29;;;;;;;34.78;15.40;;;4.40;70.80;;;;;;2401241;53;20983;-67
2022/01/26 12:14:03;;;;;;;28.60;12.45;;;4.40;70.80;;;;;;2400359;53;20959;-66
2022/01/26 12:16:39;;;;;;;43.47;16.17;;;4.40;70.80;;;;;;2400008;53;22119;-65
2022/01/26 12:32:13;;;;;;;39.40;15.82;;;4.40;71.20;;;;;;2366646;53;21034;-67
2022/01/26 12:34:58;;;;;;;46.55;18.87;;;4.40;71.20;;;;;;2365446;53;20950;-67
2022/01/26 12:37:39;;;;;;;45.40;19.48;;;4.40;71.40;;;;;;2397921;53;20974;-66
2022/01/26 12:43:01;;;;;;;46.25;22.73;;;4.40;71.60;;;;;;2372436;53;20960;-65
2022/01/26 12:45:37;;;;;;;38.97;18.45;;;4.50;71.60;;;;;;2383986;53;20939;-67
2022/01/26 12:48:07;;;;;;;33.05;15.95;;;4.50;71.60;;;;;;2400838;53;21349;-65
2022/01/26 12:50:34;;;;;;;32.13;14.57;;;4.50;71.40;;;;;;2399538;53;20975;-67
2022/01/26 12:53:00;;;;;;;31.55;14.73;;;4.50;71.20;;;;;;2400437;53;20932;-65
2022/01/26 12:55:28;;;;;;;27.80;12.70;;;4.50;71.10;;;;;;2395002;53;21688;-67
2022/01/26 12:57:55;;;;;;;28.62;13.02;;;4.50;71.80;;;;;;2379200;53;20907;-65
2022/01/26 13:00:21;;;;;;;25.65;11.93;;;4.50;71.10;;;;;;2399923;53;20923;-66
2022/01/26 13:02:47;;;;;;;25.60;11.75;;;4.50;71.10;;;;;;2659465;52;20931;-67
2022/01/26 13:05:15;;;;;;;25.58;11.48;;;4.50;71.10;;;;;;2400477;53;20919;-67
2022/01/26 13:07:42;;;;;;;29.73;12.68;;;4.50;71.20;;;;;;2400322;53;20967;-67
2022/01/26 13:10:17;;;;;;;28.83;12.50;;;4.50;71.20;;;;;;2399199;53;21626;-66
2022/01/26 13:12:44;;;;;;;31.30;13.13;;;4.50;71.00;;;;;;2362122;53;21865;-68
2022/01/26 13:15:23;;;;;;;31.85;13.65;;;4.50;70.90;;;;;;2394300;53;20967;-68
2022/01/26 13:18:04;;;;;;;26.37;11.52;;;4.50;70.80;;;;;;2384099;53;20937;-65
2022/01/26 13:20:56;;;;;;;32.17;12.63;;;4.50;70.70;;;;;;2394107;53;20943;-65
2022/01/26 13:26:22;;;;;;;23.42;10.30;;;4.40;70.60;;;;;;2400005;53;21022;-69
2022/01/26 13:29:09;;;;;;;25.88;11.15;;;4.40;70.80;;;;;;2514503;52;20967;-69
2022/01/26 13:32:17;;;;;;;26.80;11.43;;;4.40;70.80;;;;;;2398270;53;20935;-67
2022/01/26 13:44:37;;;;;;;27.80;11.00;;;4.40;70.60;;;;;;2360064;53;20979;-66
2022/01/26 13:51:19;;;;;;;24.42;9.75;;;4.30;70.70;;;;;;2457437;52;21000;-67
2022/01/26 13:54:10;;;;;;;25.80;10.73;;;4.30;70.90;;;;;;2383754;53;21283;-69
2022/01/26 13:56:54;;;;;;;25.83;10.70;;;4.30;71.00;;;;;;2394734;53;20978;-65
2022/01/26 13:59:43;;;;;;;25.75;10.50;;;4.30;71.20;;;;;;2625572;52;21493;-67
2022/01/26 14:02:10;;;;;;;24.67;9.32;;;4.30;71.10;;;;;;2375793;53;20961;-66
2022/01/26 14:04:38;;;;;;;28.27;11.35;;;4.40;71.20;;;;;;2518329;52;21911;-69
2022/01/26 14:07:07;;;;;;;33.63;12.95;;;4.40;71.20;;;;;;2399353;53;20927;-67
2022/01/26 14:09:33;;;;;;;25.45;10.88;;;4.40;71.10;;;;;;2399299;53;21374;-67
2022/01/26 14:12:01;;;;;;;26.35;10.15;;;4.40;71.10;;;;;;2374215;53;20988;-67
2022/01/26 14:14:35;;;;;;;24.25;10.23;;;4.40;71.10;;;;;;2414661;52;20919;-68
2022/01/26 14:17:01;;;;;;;22.00;10.07;;;4.40;71.20;;;;;;2447730;52;21896;-68
2022/01/26 14:19:36;;;;;;;24.65;9.95;;;4.40;71.20;;;;;;2341549;53;20966;-65
2022/01/26 14:22:34;;;;;;;24.08;10.13;;;4.40;71.30;;;;;;2371415;54;21042;-68
2022/01/26 14:28:16;;;;;;;;;;;4.40;71.00;;;;;;2349089;53;21014;-68
2022/01/26 14:31:12;;;;;;;24.75;8.40;;;4.50;70.50;;;;;;2360596;54;20074;-67
2022/01/26 14:36:41;;;;;;;25.48;9.02;;;4.40;70.80;;;;;;2372137;54;20955;-66
2022/01/26 15:00:12;;;;;;;27.00;10.85;;;4.30;70.50;;;;;;2394938;53;20939;-67
2022/01/26 15:20:26;;;;;;;33.80;12.00;;;4.10;70.50;;;;;;2366078;53;20997;-65
2022/01/26 15:58:52;;;;;;;29.85;10.55;;;4.20;71.50;;;;;;2364708;53;21491;-67
2022/01/26 16:18:40;;;;;;;28.10;11.23;;;4.30;71.30;;;;;;2392005;53;20928;-66
2022/01/26 16:21:19;;;;;;;36.45;13.15;;;4.30;71.20;;;;;;2394992;53;21524;-67
2022/01/26 17:26:28;;;;;;;31.42;14.18;;;4.00;71.60;;;;;;2607189;52;21527;-66
2022/01/26 17:37:46;;;;;;;31.42;12.32;;;4.00;71.40;;;;;;2395350;53;21062;-67
2022/01/26 17:46:57;;;;;;;26.50;9.95;;;4.00;71.40;;;;;;2394419;53;20948;-69
2022/01/26 18:17:17;;;;;;;26.20;11.18;;;4.10;71.40;;;;;;2394280;53;21051;-66
2022/01/26 18:32:08;;;;;;;30.70;12.05;;;4.10;71.00;;;;;;2394103;53;20959;-65
2022/01/26 18:51:28;;;;;;;39.78;14.32;;;4.00;70.90;;;;;;2385065;53;20959;-68
2022/01/26 18:53:55;;;;;;;34.55;14.32;;;4.00;70.80;;;;;;2394361;53;20936;-66
2022/01/26 18:56:22;;;;;;;29.42;12.60;;;4.00;70.80;;;;;;2393544;53;20983;-67
2022/01/26 18:58:49;;;;;;;30.48;13.30;;;3.90;70.80;;;;;;2393927;53;21004;-68
2022/01/26 19:01:16;;;;;;;33.22;13.65;;;3.90;70.90;;;;;;2393911;53;20935;-66
2022/01/26 19:03:43;;;;;;;29.40;12.23;;;3.90;71.00;;;;;;2393677;53;20946;-69
2022/01/26 19:06:11;;;;;;;31.92;12.98;;;3.90;71.00;;;;;;2394611;53;21035;-69